sensor_id;sensor_type;location;lat;lon;timestamp;P1;durP1;ratioP1;P2;durP2;ratioP2
51836;SDS011;38941;53.254;6.600;2022-12-18T00:00:47;65.07;;;19.08;;
51836;SDS011;38941;53.254;6.600;2022-12-18T00:02:58;67.07;;;18.00;;
51836;SDS011;38941;53.254;6.600;2022-12-18T00:05:06;70.32;;;17.42;;
51836;SDS011;38941;53.254;6.600;2022-12-18T00:09:29;68.65;;;20.42;;
51836;SDS011;38941;53.254;6.600;2022-12-18T00:11:39;49.50;;;14.60;;
51836;SDS011;38941;53.254;6.600;2022-12-18T00:13:42;54.60;;;14.38;;
51836;SDS011;38941;53.254;6.600;2022-12-18T00:15:49;56.40;;;16.67;;
51836;SDS011;38941;53.254;6.600;2022-12-18T00:20:19;72.57;;;19.15;;
51836;SDS011;38941;53.254;6.600;2022-12-18T00:22:43;55.75;;;13.95;;
51836;SDS011;38941;53.254;6.600;2022-12-18T00:24:52;55.85;;;17.80;;
51836;SDS011;38941;53.254;6.600;2022-12-18T00:29:01;58.45;;;16.27;;
51836;SDS011;38941;53.254;6.600;2022-12-18T00:31:14;69.22;;;18.05;;
51836;SDS011;38941;53.254;6.600;2022-12-18T00:33:31;61.42;;;15.60;;
51836;SDS011;38941;53.254;6.600;2022-12-18T00:35:35;67.07;;;16.58;;
51836;SDS011;38941;53.254;6.600;2022-12-18T00:37:38;56.40;;;16.63;;
51836;SDS011;38941;53.254;6.600;2022-12-18T00:39:48;63.60;;;17.27;;
51836;SDS011;38941;53.254;6.600;2022-12-18T00:44:16;65.18;;;17.45;;
51836;SDS011;38941;53.254;6.600;2022-12-18T00:46:30;71.67;;;18.93;;
51836;SDS011;38941;53.254;6.600;2022-12-18T00:50:48;66.28;;;20.13;;
51836;SDS011;38941;53.254;6.600;2022-12-18T00:52:53;61.70;;;17.90;;
51836;SDS011;38941;53.254;6.600;2022-12-18T00:55:00;58.47;;;17.52;;
51836;SDS011;38941;53.254;6.600;2022-12-18T00:57:08;61.80;;;18.92;;
51836;SDS011;38941;53.254;6.600;2022-12-18T00:59:16;72.95;;;19.98;;
51836;SDS011;38941;53.254;6.600;2022-12-18T01:01:29;63.63;;;18.88;;
51836;SDS011;38941;53.254;6.600;2022-12-18T01:03:33;67.63;;;18.55;;
51836;SDS011;38941;53.254;6.600;2022-12-18T01:05:38;61.72;;;16.92;;
51836;SDS011;38941;53.254;6.600;2022-12-18T01:07:42;61.67;;;16.83;;
51836;SDS011;38941;53.254;6.600;2022-12-18T01:09:46;65.03;;;17.67;;
51836;SDS011;38941;53.254;6.600;2022-12-18T01:11:51;67.68;;;16.42;;
51836;SDS011;38941;53.254;6.600;2022-12-18T01:13:55;61.53;;;18.23;;
51836;SDS011;38941;53.254;6.600;2022-12-18T01:16:06;62.20;;;19.35;;
51836;SDS011;38941;53.254;6.600;2022-12-18T01:18:13;55.75;;;17.73;;
51836;SDS011;38941;53.254;6.600;2022-12-18T01:20:22;58.42;;;14.02;;
51836;SDS011;38941;53.254;6.600;2022-12-18T01:22:25;49.95;;;15.60;;
51836;SDS011;38941;53.254;6.600;2022-12-18T01:24:35;60.08;;;18.70;;
51836;SDS011;38941;53.254;6.600;2022-12-18T01:26:41;53.97;;;14.68;;
51836;SDS011;38941;53.254;6.600;2022-12-18T01:28:57;46.17;;;12.10;;
51836;SDS011;38941;53.254;6.600;2022-12-18T01:31:16;43.67;;;14.15;;
51836;SDS011;38941;53.254;6.600;2022-12-18T01:33:27;53.60;;;16.55;;
51836;SDS011;38941;53.254;6.600;2022-12-18T01:35:42;68.65;;;20.02;;
51836;SDS011;38941;53.254;6.600;2022-12-18T01:37:49;62.72;;;17.95;;
51836;SDS011;38941;53.254;6.600;2022-12-18T01:40:00;55.20;;;15.88;;
51836;SDS011;38941;53.254;6.600;2022-12-18T01:42:19;72.18;;;17.98;;
51836;SDS011;38941;53.254;6.600;2022-12-18T01:46:58;59.90;;;17.90;;
51836;SDS011;38941;53.254;6.600;2022-12-18T01:49:07;59.85;;;16.17;;
51836;SDS011;38941;53.254;6.600;2022-12-18T01:51:17;60.33;;;16.52;;
51836;SDS011;38941;53.254;6.600;2022-12-18T01:55:32;54.75;;;15.73;;
51836;SDS011;38941;53.254;6.600;2022-12-18T01:57:40;52.90;;;15.63;;
51836;SDS011;38941;53.254;6.600;2022-12-18T01:59:47;60.72;;;17.33;;
51836;SDS011;38941;53.254;6.600;2022-12-18T02:01:57;52.83;;;16.55;;
51836;SDS011;38941;53.254;6.600;2022-12-18T02:06:39;58.75;;;16.58;;
51836;SDS011;38941;53.254;6.600;2022-12-18T02:16:17;51.08;;;15.93;;
51836;SDS011;38941;53.254;6.600;2022-12-18T02:18:30;51.72;;;15.63;;
51836;SDS011;38941;53.254;6.600;2022-12-18T02:20:43;57.17;;;15.95;;
51836;SDS011;38941;53.254;6.600;2022-12-18T02:23:01;62.42;;;18.10;;
51836;SDS011;38941;53.254;6.600;2022-12-18T02:27:44;58.08;;;17.05;;
51836;SDS011;38941;53.254;6.600;2022-12-18T02:29:51;68.97;;;18.00;;
51836;SDS011;38941;53.254;6.600;2022-12-18T02:32:02;58.05;;;17.63;;
51836;SDS011;38941;53.254;6.600;2022-12-18T02:34:10;61.28;;;18.77;;
51836;SDS011;38941;53.254;6.600;2022-12-18T02:36:14;55.30;;;16.35;;
51836;SDS011;38941;53.254;6.600;2022-12-18T02:38:20;62.95;;;17.17;;
51836;SDS011;38941;53.254;6.600;2022-12-18T02:40:29;69.85;;;19.20;;
51836;SDS011;38941;53.254;6.600;2022-12-18T02:44:39;47.50;;;13.48;;
51836;SDS011;38941;53.254;6.600;2022-12-18T02:46:49;65.97;;;17.60;;
51836;SDS011;38941;53.254;6.600;2022-12-18T02:49:06;68.82;;;18.30;;
51836;SDS011;38941;53.254;6.600;2022-12-18T02:51:24;55.33;;;17.35;;
51836;SDS011;38941;53.254;6.600;2022-12-18T02:54:20;60.20;;;17.67;;
51836;SDS011;38941;53.254;6.600;2022-12-18T02:56:11;60.97;;;16.95;;
51836;SDS011;38941;53.254;6.600;2022-12-18T03:07:19;62.08;;;17.55;;
51836;SDS011;38941;53.254;6.600;2022-12-18T03:10:03;57.35;;;17.42;;
51836;SDS011;38941;53.254;6.600;2022-12-18T03:12:21;62.60;;;18.48;;
51836;SDS011;38941;53.254;6.600;2022-12-18T03:14:35;67.00;;;18.30;;
51836;SDS011;38941;53.254;6.600;2022-12-18T03:16:48;65.68;;;18.33;;
51836;SDS011;38941;53.254;6.600;2022-12-18T03:19:00;62.00;;;17.88;;
51836;SDS011;38941;53.254;6.600;2022-12-18T03:21:14;64.63;;;18.10;;
51836;SDS011;38941;53.254;6.600;2022-12-18T03:23:25;62.08;;;17.92;;
51836;SDS011;38941;53.254;6.600;2022-12-18T03:25:32;80.35;;;19.55;;
51836;SDS011;38941;53.254;6.600;2022-12-18T03:30:01;58.05;;;16.05;;
51836;SDS011;38941;53.254;6.600;2022-12-18T03:34:30;61.63;;;18.02;;
51836;SDS011;38941;53.254;6.600;2022-12-18T03:36:36;71.95;;;17.25;;
51836;SDS011;38941;53.254;6.600;2022-12-18T03:38:39;63.55;;;18.08;;
51836;SDS011;38941;53.254;6.600;2022-12-18T03:40:51;62.38;;;17.08;;
51836;SDS011;38941;53.254;6.600;2022-12-18T03:43:10;58.33;;;14.82;;
51836;SDS011;38941;53.254;6.600;2022-12-18T03:48:21;62.92;;;17.25;;
51836;SDS011;38941;53.254;6.600;2022-12-18T03:53:23;76.70;;;19.02;;
51836;SDS011;38941;53.254;6.600;2022-12-18T03:55:43;62.20;;;18.30;;
51836;SDS011;38941;53.254;6.600;2022-12-18T03:57:47;61.80;;;17.25;;
51836;SDS011;38941;53.254;6.600;2022-12-18T03:59:55;74.53;;;19.38;;
51836;SDS011;38941;53.254;6.600;2022-12-18T04:07:02;65.45;;;17.88;;
51836;SDS011;38941;53.254;6.600;2022-12-18T04:09:16;70.15;;;19.10;;
51836;SDS011;38941;53.254;6.600;2022-12-18T04:11:22;67.70;;;17.70;;
51836;SDS011;38941;53.254;6.600;2022-12-18T04:13:28;67.45;;;18.27;;
51836;SDS011;38941;53.254;6.600;2022-12-18T04:15:51;70.07;;;18.58;;
51836;SDS011;38941;53.254;6.600;2022-12-18T04:18:08;54.05;;;17.38;;
51836;SDS011;38941;53.254;6.600;2022-12-18T04:20:12;67.95;;;18.42;;
51836;SDS011;38941;53.254;6.600;2022-12-18T04:22:24;72.50;;;19.23;;
51836;SDS011;38941;53.254;6.600;2022-12-18T04:30:49;42.78;;;13.45;;
51836;SDS011;38941;53.254;6.600;2022-12-18T04:32:53;69.80;;;17.67;;
51836;SDS011;38941;53.254;6.600;2022-12-18T04:34:55;63.50;;;16.80;;
51836;SDS011;38941;53.254;6.600;2022-12-18T04:36:59;55.95;;;15.60;;
51836;SDS011;38941;53.254;6.600;2022-12-18T04:39:06;77.28;;;18.40;;
51836;SDS011;38941;53.254;6.600;2022-12-18T04:41:12;68.25;;;19.25;;
51836;SDS011;38941;53.254;6.600;2022-12-18T04:43:22;58.90;;;17.30;;
51836;SDS011;38941;53.254;6.600;2022-12-18T04:45:26;63.88;;;16.45;;
51836;SDS011;38941;53.254;6.600;2022-12-18T04:49:41;62.67;;;16.38;;
51836;SDS011;38941;53.254;6.600;2022-12-18T04:51:46;66.28;;;17.50;;
51836;SDS011;38941;53.254;6.600;2022-12-18T04:53:56;56.95;;;18.25;;
51836;SDS011;38941;53.254;6.600;2022-12-18T04:56:09;67.57;;;17.42;;
51836;SDS011;38941;53.254;6.600;2022-12-18T04:58:14;56.83;;;14.90;;
51836;SDS011;38941;53.254;6.600;2022-12-18T05:00:24;54.28;;;17.40;;
51836;SDS011;38941;53.254;6.600;2022-12-18T05:02:33;65.00;;;17.23;;
51836;SDS011;38941;53.254;6.600;2022-12-18T05:04:35;58.58;;;18.83;;
51836;SDS011;38941;53.254;6.600;2022-12-18T05:06:39;60.20;;;18.50;;
51836;SDS011;38941;53.254;6.600;2022-12-18T05:08:49;66.35;;;18.38;;
51836;SDS011;38941;53.254;6.600;2022-12-18T05:13:15;59.55;;;18.33;;
51836;SDS011;38941;53.254;6.600;2022-12-18T05:15:18;60.45;;;17.13;;
51836;SDS011;38941;53.254;6.600;2022-12-18T05:17:26;63.95;;;17.92;;
51836;SDS011;38941;53.254;6.600;2022-12-18T05:19:38;58.88;;;16.05;;
51836;SDS011;38941;53.254;6.600;2022-12-18T05:21:40;58.88;;;15.77;;
51836;SDS011;38941;53.254;6.600;2022-12-18T05:23:43;56.78;;;17.17;;
51836;SDS011;38941;53.254;6.600;2022-12-18T05:28:16;49.88;;;15.02;;
51836;SDS011;38941;53.254;6.600;2022-12-18T05:30:18;56.95;;;15.63;;
51836;SDS011;38941;53.254;6.600;2022-12-18T05:32:26;56.92;;;16.73;;
51836;SDS011;38941;53.254;6.600;2022-12-18T05:34:39;58.63;;;17.52;;
51836;SDS011;38941;53.254;6.600;2022-12-18T05:36:44;57.10;;;15.65;;
51836;SDS011;38941;53.254;6.600;2022-12-18T05:38:54;44.17;;;14.48;;
51836;SDS011;38941;53.254;6.600;2022-12-18T05:41:03;52.20;;;16.02;;
51836;SDS011;38941;53.254;6.600;2022-12-18T05:43:07;53.92;;;14.88;;
51836;SDS011;38941;53.254;6.600;2022-12-18T05:45:12;54.80;;;15.82;;
51836;SDS011;38941;53.254;6.600;2022-12-18T05:47:20;67.90;;;16.77;;
51836;SDS011;38941;53.254;6.600;2022-12-18T05:49:31;46.83;;;16.23;;
51836;SDS011;38941;53.254;6.600;2022-12-18T05:51:34;48.03;;;14.30;;
51836;SDS011;38941;53.254;6.600;2022-12-18T05:53:42;53.70;;;16.05;;
51836;SDS011;38941;53.254;6.600;2022-12-18T05:55:49;38.97;;;11.95;;
51836;SDS011;38941;53.254;6.600;2022-12-18T05:57:56;51.55;;;15.00;;
51836;SDS011;38941;53.254;6.600;2022-12-18T06:00:03;56.97;;;17.17;;
51836;SDS011;38941;53.254;6.600;2022-12-18T06:02:12;54.00;;;14.13;;
51836;SDS011;38941;53.254;6.600;2022-12-18T06:04:20;54.05;;;15.70;;
51836;SDS011;38941;53.254;6.600;2022-12-18T06:06:28;46.13;;;13.98;;
51836;SDS011;38941;53.254;6.600;2022-12-18T06:08:33;51.70;;;15.93;;
51836;SDS011;38941;53.254;6.600;2022-12-18T06:10:42;54.40;;;15.70;;
51836;SDS011;38941;53.254;6.600;2022-12-18T06:12:56;46.25;;;15.00;;
51836;SDS011;38941;53.254;6.600;2022-12-18T06:14:59;47.25;;;14.55;;
51836;SDS011;38941;53.254;6.600;2022-12-18T06:17:10;56.75;;;14.52;;
51836;SDS011;38941;53.254;6.600;2022-12-18T06:21:33;51.63;;;14.57;;
51836;SDS011;38941;53.254;6.600;2022-12-18T06:23:38;64.18;;;14.80;;
51836;SDS011;38941;53.254;6.600;2022-12-18T06:25:46;53.67;;;14.45;;
51836;SDS011;38941;53.254;6.600;2022-12-18T06:30:00;44.72;;;15.85;;
51836;SDS011;38941;53.254;6.600;2022-12-18T06:32:13;46.83;;;15.35;;
51836;SDS011;38941;53.254;6.600;2022-12-18T06:34:21;40.90;;;13.32;;
51836;SDS011;38941;53.254;6.600;2022-12-18T06:36:35;44.15;;;13.73;;
51836;SDS011;38941;53.254;6.600;2022-12-18T06:38:44;40.83;;;14.25;;
51836;SDS011;38941;53.254;6.600;2022-12-18T06:40:50;52.80;;;15.43;;
51836;SDS011;38941;53.254;6.600;2022-12-18T06:43:01;54.67;;;16.23;;
51836;SDS011;38941;53.254;6.600;2022-12-18T06:45:11;40.90;;;14.27;;
51836;SDS011;38941;53.254;6.600;2022-12-18T06:47:16;42.75;;;15.45;;
51836;SDS011;38941;53.254;6.600;2022-12-18T06:51:42;48.30;;;13.85;;
51836;SDS011;38941;53.254;6.600;2022-12-18T06:53:49;41.85;;;14.15;;
51836;SDS011;38941;53.254;6.600;2022-12-18T06:56:03;40.33;;;13.05;;
51836;SDS011;38941;53.254;6.600;2022-12-18T06:58:14;41.53;;;13.07;;
51836;SDS011;38941;53.254;6.600;2022-12-18T07:00:26;41.42;;;12.60;;
51836;SDS011;38941;53.254;6.600;2022-12-18T07:02:39;41.42;;;13.77;;
51836;SDS011;38941;53.254;6.600;2022-12-18T07:04:50;44.10;;;12.90;;
51836;SDS011;38941;53.254;6.600;2022-12-18T07:07:01;41.97;;;12.25;;
51836;SDS011;38941;53.254;6.600;2022-12-18T07:09:13;35.17;;;13.82;;
51836;SDS011;38941;53.254;6.600;2022-12-18T07:13:27;37.50;;;12.20;;
51836;SDS011;38941;53.254;6.600;2022-12-18T07:15:30;37.95;;;11.63;;
51836;SDS011;38941;53.254;6.600;2022-12-18T07:17:36;37.10;;;12.48;;
51836;SDS011;38941;53.254;6.600;2022-12-18T07:19:45;49.42;;;14.23;;
51836;SDS011;38941;53.254;6.600;2022-12-18T07:21:57;44.58;;;12.35;;
51836;SDS011;38941;53.254;6.600;2022-12-18T07:26:06;38.38;;;11.55;;
51836;SDS011;38941;53.254;6.600;2022-12-18T07:28:18;34.58;;;11.48;;
51836;SDS011;38941;53.254;6.600;2022-12-18T07:30:21;38.03;;;10.50;;
51836;SDS011;38941;53.254;6.600;2022-12-18T07:32:25;40.83;;;13.50;;
51836;SDS011;38941;53.254;6.600;2022-12-18T07:34:30;29.75;;;12.50;;
51836;SDS011;38941;53.254;6.600;2022-12-18T07:36:35;38.47;;;11.68;;
51836;SDS011;38941;53.254;6.600;2022-12-18T07:38:46;33.15;;;10.63;;
51836;SDS011;38941;53.254;6.600;2022-12-18T07:40:51;30.30;;;10.68;;
51836;SDS011;38941;53.254;6.600;2022-12-18T07:43:01;34.53;;;11.57;;
51836;SDS011;38941;53.254;6.600;2022-12-18T07:45:12;34.85;;;10.95;;
51836;SDS011;38941;53.254;6.600;2022-12-18T07:49:33;34.33;;;11.98;;
51836;SDS011;38941;53.254;6.600;2022-12-18T07:51:39;30.85;;;10.25;;
51836;SDS011;38941;53.254;6.600;2022-12-18T07:53:50;26.70;;;10.37;;
51836;SDS011;38941;53.254;6.600;2022-12-18T07:55:56;29.05;;;11.93;;
51836;SDS011;38941;53.254;6.600;2022-12-18T07:58:03;31.48;;;11.75;;
51836;SDS011;38941;53.254;6.600;2022-12-18T08:00:06;32.03;;;11.18;;
51836;SDS011;38941;53.254;6.600;2022-12-18T08:02:09;35.75;;;10.10;;
51836;SDS011;38941;53.254;6.600;2022-12-18T08:04:17;32.78;;;11.80;;
51836;SDS011;38941;53.254;6.600;2022-12-18T08:06:27;33.72;;;10.75;;
51836;SDS011;38941;53.254;6.600;2022-12-18T08:08:30;32.88;;;10.80;;
51836;SDS011;38941;53.254;6.600;2022-12-18T08:10:37;29.73;;;10.15;;
51836;SDS011;38941;53.254;6.600;2022-12-18T08:12:40;32.22;;;11.20;;
51836;SDS011;38941;53.254;6.600;2022-12-18T08:14:48;28.08;;;9.70;;
51836;SDS011;38941;53.254;6.600;2022-12-18T08:16:53;36.15;;;10.90;;
51836;SDS011;38941;53.254;6.600;2022-12-18T08:18:57;31.63;;;11.57;;
51836;SDS011;38941;53.254;6.600;2022-12-18T08:23:25;33.05;;;11.50;;
51836;SDS011;38941;53.254;6.600;2022-12-18T08:25:28;28.90;;;10.02;;
51836;SDS011;38941;53.254;6.600;2022-12-18T08:27:32;29.67;;;10.48;;
51836;SDS011;38941;53.254;6.600;2022-12-18T08:29:42;36.40;;;11.88;;
51836;SDS011;38941;53.254;6.600;2022-12-18T08:31:48;26.40;;;9.85;;
51836;SDS011;38941;53.254;6.600;2022-12-18T08:33:52;26.27;;;10.63;;
51836;SDS011;38941;53.254;6.600;2022-12-18T08:36:00;34.20;;;11.18;;
51836;SDS011;38941;53.254;6.600;2022-12-18T08:38:17;34.65;;;10.10;;
51836;SDS011;38941;53.254;6.600;2022-12-18T08:40:23;32.30;;;10.63;;
51836;SDS011;38941;53.254;6.600;2022-12-18T08:42:27;29.67;;;11.27;;
51836;SDS011;38941;53.254;6.600;2022-12-18T08:44:50;32.33;;;10.88;;
51836;SDS011;38941;53.254;6.600;2022-12-18T08:46:57;29.48;;;10.32;;
51836;SDS011;38941;53.254;6.600;2022-12-18T08:49:06;38.78;;;11.98;;
51836;SDS011;38941;53.254;6.600;2022-12-18T08:51:15;30.73;;;9.52;;
51836;SDS011;38941;53.254;6.600;2022-12-18T08:53:19;27.88;;;10.57;;
51836;SDS011;38941;53.254;6.600;2022-12-18T08:55:30;26.88;;;10.18;;
51836;SDS011;38941;53.254;6.600;2022-12-18T08:57:34;30.38;;;10.88;;
51836;SDS011;38941;53.254;6.600;2022-12-18T08:59:39;28.75;;;10.38;;
51836;SDS011;38941;53.254;6.600;2022-12-18T09:01:44;29.08;;;10.82;;
51836;SDS011;38941;53.254;6.600;2022-12-18T09:03:48;28.67;;;10.10;;
51836;SDS011;38941;53.254;6.600;2022-12-18T09:08:09;31.75;;;10.70;;
51836;SDS011;38941;53.254;6.600;2022-12-18T09:10:17;28.05;;;9.90;;
51836;SDS011;38941;53.254;6.600;2022-12-18T09:12:20;26.27;;;9.52;;
51836;SDS011;38941;53.254;6.600;2022-12-18T09:14:24;23.98;;;9.57;;
51836;SDS011;38941;53.254;6.600;2022-12-18T09:16:27;23.05;;;9.68;;
51836;SDS011;38941;53.254;6.600;2022-12-18T09:18:37;26.20;;;9.88;;
51836;SDS011;38941;53.254;6.600;2022-12-18T09:20:45;28.85;;;10.85;;
51836;SDS011;38941;53.254;6.600;2022-12-18T09:22:49;24.80;;;9.30;;
51836;SDS011;38941;53.254;6.600;2022-12-18T09:24:54;26.17;;;9.65;;
51836;SDS011;38941;53.254;6.600;2022-12-18T09:26:57;23.55;;;9.18;;
51836;SDS011;38941;53.254;6.600;2022-12-18T09:29:00;20.63;;;9.18;;
51836;SDS011;38941;53.254;6.600;2022-12-18T09:31:08;29.17;;;10.55;;
51836;SDS011;38941;53.254;6.600;2022-12-18T09:35:21;23.20;;;9.18;;
51836;SDS011;38941;53.254;6.600;2022-12-18T09:37:22;23.17;;;10.18;;
51836;SDS011;38941;53.254;6.600;2022-12-18T09:39:27;18.75;;;7.70;;
51836;SDS011;38941;53.254;6.600;2022-12-18T09:41:33;20.88;;;8.98;;
51836;SDS011;38941;53.254;6.600;2022-12-18T09:44:34;23.63;;;9.75;;
51836;SDS011;38941;53.254;6.600;2022-12-18T09:46:38;20.95;;;9.38;;
51836;SDS011;38941;53.254;6.600;2022-12-18T09:48:51;23.52;;;8.90;;
51836;SDS011;38941;53.254;6.600;2022-12-18T09:51:15;22.27;;;8.30;;
51836;SDS011;38941;53.254;6.600;2022-12-18T09:53:24;20.20;;;7.55;;
51836;SDS011;38941;53.254;6.600;2022-12-18T09:55:34;17.17;;;8.13;;
51836;SDS011;38941;53.254;6.600;2022-12-18T09:57:44;17.08;;;8.20;;
51836;SDS011;38941;53.254;6.600;2022-12-18T09:59:54;21.50;;;8.20;;
51836;SDS011;38941;53.254;6.600;2022-12-18T10:02:18;18.55;;;7.63;;
51836;SDS011;38941;53.254;6.600;2022-12-18T10:04:27;17.10;;;7.28;;
51836;SDS011;38941;53.254;6.600;2022-12-18T10:06:42;19.35;;;8.18;;
51836;SDS011;38941;53.254;6.600;2022-12-18T10:13:45;16.33;;;6.88;;
51836;SDS011;38941;53.254;6.600;2022-12-18T10:21:06;20.27;;;7.28;;
51836;SDS011;38941;53.254;6.600;2022-12-18T10:23:30;15.55;;;6.65;;
51836;SDS011;38941;53.254;6.600;2022-12-18T10:28:10;19.08;;;6.78;;
51836;SDS011;38941;53.254;6.600;2022-12-18T10:30:18;15.90;;;6.63;;
51836;SDS011;38941;53.254;6.600;2022-12-18T10:32:27;15.25;;;7.13;;
51836;SDS011;38941;53.254;6.600;2022-12-18T10:34:31;14.73;;;6.28;;
51836;SDS011;38941;53.254;6.600;2022-12-18T10:36:32;12.70;;;5.13;;
51836;SDS011;38941;53.254;6.600;2022-12-18T10:38:35;13.98;;;5.55;;
51836;SDS011;38941;53.254;6.600;2022-12-18T10:40:49;12.52;;;5.80;;
51836;SDS011;38941;53.254;6.600;2022-12-18T10:43:05;11.23;;;4.97;;
51836;SDS011;38941;53.254;6.600;2022-12-18T10:45:15;12.50;;;5.22;;
51836;SDS011;38941;53.254;6.600;2022-12-18T10:47:17;12.95;;;6.13;;
51836;SDS011;38941;53.254;6.600;2022-12-18T10:49:31;14.20;;;6.78;;
51836;SDS011;38941;53.254;6.600;2022-12-18T10:51:39;10.73;;;5.10;;
51836;SDS011;38941;53.254;6.600;2022-12-18T10:53:41;12.57;;;4.65;;
51836;SDS011;38941;53.254;6.600;2022-12-18T10:55:50;12.85;;;5.43;;
51836;SDS011;38941;53.254;6.600;2022-12-18T10:58:01;11.65;;;5.38;;
51836;SDS011;38941;53.254;6.600;2022-12-18T11:00:25;10.82;;;5.13;;
51836;SDS011;38941;53.254;6.600;2022-12-18T11:02:40;10.00;;;4.78;;
51836;SDS011;38941;53.254;6.600;2022-12-18T11:04:50;14.07;;;5.38;;
51836;SDS011;38941;53.254;6.600;2022-12-18T11:09:19;12.65;;;5.25;;
51836;SDS011;38941;53.254;6.600;2022-12-18T11:11:29;13.85;;;4.78;;
51836;SDS011;38941;53.254;6.600;2022-12-18T11:13:36;11.00;;;4.95;;
51836;SDS011;38941;53.254;6.600;2022-12-18T11:15:41;10.73;;;4.57;;
51836;SDS011;38941;53.254;6.600;2022-12-18T11:17:49;9.38;;;4.53;;
51836;SDS011;38941;53.254;6.600;2022-12-18T11:20:05;10.00;;;5.07;;
51836;SDS011;38941;53.254;6.600;2022-12-18T11:24:51;13.98;;;5.97;;
51836;SDS011;38941;53.254;6.600;2022-12-18T11:27:16;12.48;;;5.25;;
51836;SDS011;38941;53.254;6.600;2022-12-18T11:29:23;9.32;;;4.68;;
51836;SDS011;38941;53.254;6.600;2022-12-18T11:31:36;10.88;;;4.60;;
51836;SDS011;38941;53.254;6.600;2022-12-18T11:33:41;8.70;;;4.55;;
51836;SDS011;38941;53.254;6.600;2022-12-18T11:35:52;10.07;;;4.78;;
51836;SDS011;38941;53.254;6.600;2022-12-18T11:37:57;8.48;;;3.95;;
51836;SDS011;38941;53.254;6.600;2022-12-18T11:40:20;8.32;;;4.45;;
51836;SDS011;38941;53.254;6.600;2022-12-18T11:42:34;8.02;;;4.18;;
51836;SDS011;38941;53.254;6.600;2022-12-18T11:44:52;8.65;;;4.30;;
51836;SDS011;38941;53.254;6.600;2022-12-18T11:47:01;9.20;;;4.57;;
51836;SDS011;38941;53.254;6.600;2022-12-18T11:49:12;8.30;;;4.28;;
51836;SDS011;38941;53.254;6.600;2022-12-18T11:53:54;9.02;;;4.22;;
51836;SDS011;38941;53.254;6.600;2022-12-18T12:00:22;9.20;;;4.20;;
51836;SDS011;38941;53.254;6.600;2022-12-18T12:02:46;11.93;;;4.18;;
51836;SDS011;38941;53.254;6.600;2022-12-18T12:05:15;7.55;;;3.83;;
51836;SDS011;38941;53.254;6.600;2022-12-18T12:07:41;13.93;;;4.05;;
51836;SDS011;38941;53.254;6.600;2022-12-18T12:10:21;9.65;;;3.63;;
51836;SDS011;38941;53.254;6.600;2022-12-18T12:12:57;12.75;;;3.67;;
51836;SDS011;38941;53.254;6.600;2022-12-18T12:15:26;12.80;;;4.30;;
51836;SDS011;38941;53.254;6.600;2022-12-18T12:22:27;8.13;;;3.60;;
51836;SDS011;38941;53.254;6.600;2022-12-18T12:34:34;9.68;;;3.60;;
51836;SDS011;38941;53.254;6.600;2022-12-18T12:37:11;8.85;;;3.63;;
51836;SDS011;38941;53.254;6.600;2022-12-18T12:39:28;9.25;;;3.20;;
51836;SDS011;38941;53.254;6.600;2022-12-18T12:41:37;6.22;;;3.10;;
51836;SDS011;38941;53.254;6.600;2022-12-18T12:44:01;7.10;;;3.30;;
51836;SDS011;38941;53.254;6.600;2022-12-18T12:46:11;9.07;;;4.07;;
51836;SDS011;38941;53.254;6.600;2022-12-18T12:50:37;8.35;;;3.95;;
51836;SDS011;38941;53.254;6.600;2022-12-18T12:52:54;6.13;;;3.33;;
51836;SDS011;38941;53.254;6.600;2022-12-18T12:55:04;9.88;;;3.88;;
51836;SDS011;38941;53.254;6.600;2022-12-18T13:06:44;8.30;;;4.10;;
51836;SDS011;38941;53.254;6.600;2022-12-18T13:08:56;8.15;;;4.28;;
51836;SDS011;38941;53.254;6.600;2022-12-18T13:11:00;9.90;;;4.43;;
51836;SDS011;38941;53.254;6.600;2022-12-18T13:13:20;10.70;;;3.85;;
51836;SDS011;38941;53.254;6.600;2022-12-18T13:17:59;9.60;;;3.83;;
51836;SDS011;38941;53.254;6.600;2022-12-18T13:20:12;8.07;;;3.33;;
51836;SDS011;38941;53.254;6.600;2022-12-18T13:22:20;9.02;;;4.28;;
51836;SDS011;38941;53.254;6.600;2022-12-18T13:24:30;14.23;;;3.75;;
51836;SDS011;38941;53.254;6.600;2022-12-18T13:26:34;7.15;;;4.07;;
51836;SDS011;38941;53.254;6.600;2022-12-18T13:30:56;8.63;;;3.92;;
51836;SDS011;38941;53.254;6.600;2022-12-18T13:39:45;8.13;;;3.80;;
51836;SDS011;38941;53.254;6.600;2022-12-18T13:44:38;8.88;;;3.80;;
51836;SDS011;38941;53.254;6.600;2022-12-18T13:46:45;8.02;;;3.17;;
51836;SDS011;38941;53.254;6.600;2022-12-18T13:49:05;9.55;;;4.45;;
51836;SDS011;38941;53.254;6.600;2022-12-18T13:51:22;8.35;;;3.63;;
51836;SDS011;38941;53.254;6.600;2022-12-18T13:53:32;8.38;;;3.97;;
51836;SDS011;38941;53.254;6.600;2022-12-18T13:55:39;8.98;;;4.03;;
51836;SDS011;38941;53.254;6.600;2022-12-18T13:57:49;6.93;;;3.50;;
51836;SDS011;38941;53.254;6.600;2022-12-18T13:59:55;8.05;;;4.03;;
51836;SDS011;38941;53.254;6.600;2022-12-18T14:02:00;9.02;;;3.40;;
51836;SDS011;38941;53.254;6.600;2022-12-18T14:04:26;9.30;;;3.55;;
51836;SDS011;38941;53.254;6.600;2022-12-18T14:06:31;8.10;;;3.60;;
51836;SDS011;38941;53.254;6.600;2022-12-18T14:08:40;10.07;;;3.13;;
51836;SDS011;38941;53.254;6.600;2022-12-18T14:10:44;9.02;;;4.50;;
51836;SDS011;38941;53.254;6.600;2022-12-18T14:12:48;9.88;;;4.43;;
51836;SDS011;38941;53.254;6.600;2022-12-18T14:15:03;7.65;;;3.17;;
51836;SDS011;38941;53.254;6.600;2022-12-18T14:17:09;10.73;;;4.47;;
51836;SDS011;38941;53.254;6.600;2022-12-18T14:19:15;9.32;;;4.60;;
51836;SDS011;38941;53.254;6.600;2022-12-18T14:21:30;11.88;;;4.20;;
51836;SDS011;38941;53.254;6.600;2022-12-18T14:23:42;9.88;;;3.67;;
51836;SDS011;38941;53.254;6.600;2022-12-18T14:25:45;7.72;;;4.10;;
51836;SDS011;38941;53.254;6.600;2022-12-18T14:27:53;8.25;;;3.63;;
51836;SDS011;38941;53.254;6.600;2022-12-18T14:32:31;9.68;;;3.75;;
51836;SDS011;38941;53.254;6.600;2022-12-18T14:34:33;9.57;;;4.50;;
51836;SDS011;38941;53.254;6.600;2022-12-18T14:36:34;9.90;;;4.03;;
51836;SDS011;38941;53.254;6.600;2022-12-18T14:38:40;15.73;;;4.93;;
51836;SDS011;38941;53.254;6.600;2022-12-18T14:40:43;9.55;;;4.45;;
51836;SDS011;38941;53.254;6.600;2022-12-18T14:42:45;9.82;;;4.78;;
51836;SDS011;38941;53.254;6.600;2022-12-18T14:44:47;12.18;;;4.63;;
51836;SDS011;38941;53.254;6.600;2022-12-18T14:46:49;12.38;;;5.05;;
51836;SDS011;38941;53.254;6.600;2022-12-18T14:48:54;10.05;;;4.63;;
51836;SDS011;38941;53.254;6.600;2022-12-18T14:53:18;11.40;;;5.13;;
51836;SDS011;38941;53.254;6.600;2022-12-18T14:55:23;8.25;;;4.25;;
51836;SDS011;38941;53.254;6.600;2022-12-18T14:57:29;9.50;;;4.88;;
51836;SDS011;38941;53.254;6.600;2022-12-18T14:59:38;12.63;;;4.72;;
51836;SDS011;38941;53.254;6.600;2022-12-18T15:02:15;9.65;;;4.15;;
51836;SDS011;38941;53.254;6.600;2022-12-18T15:06:40;9.13;;;4.43;;
51836;SDS011;38941;53.254;6.600;2022-12-18T15:08:43;9.88;;;4.60;;
51836;SDS011;38941;53.254;6.600;2022-12-18T15:10:47;10.18;;;4.68;;
51836;SDS011;38941;53.254;6.600;2022-12-18T15:15:02;10.35;;;4.80;;
51836;SDS011;38941;53.254;6.600;2022-12-18T15:17:17;9.52;;;5.05;;
51836;SDS011;38941;53.254;6.600;2022-12-18T15:19:26;13.25;;;5.10;;
51836;SDS011;38941;53.254;6.600;2022-12-18T15:21:44;10.52;;;4.45;;
51836;SDS011;38941;53.254;6.600;2022-12-18T15:23:51;8.82;;;4.70;;
51836;SDS011;38941;53.254;6.600;2022-12-18T15:27:59;12.10;;;4.65;;